Portada
METAR-TAF:

METAR-TAF

Aeroports :

Umiujaq, Quebec, Canadà

latitud: 56-32N, longitud: 076-31W, altitud: 71 m

Observació

L'informe es va fer fa 7 hores i 59 minuts, a les 12:00 UTC
Vent 5 kt del Oest
Temperatura 0°C
Humitat 100%
Pressió 1016 hPa
Visibilitat: 0.0 km
plugim, boira

METAR: CYMU 061200Z 26005KT 0SM -DZ FG VV002 00/00 A2999 RMK FG8 LAST OBS/NEXT 07 1200Z SLP161

Hora: 15:59 (19:59 UTC)


TAF: manca

Observacions i pronòstics meteorològics de més de 4000 aeroports (METAR i TAF).

Les estacions disponibles són els punts grocs i vermells al mapa.

Posi el ratolí al punt desitjat per veure el nom de l'estació.

Feu clic per veure les observacions i els pronòstics meteorològics.

Per canviar el mapa: feu clic els botons verds amb una creu de color negre per apropar; al botó verd amb un guió per allunyar la imatge; o en les fletxes verdes per a mapes adjacents.


METAR-TAF: